Time,TemperatureF,DewpointF,PressureIn,WindDirection,WindDirectionDegrees,WindSpeedMPH,WindSpeedGustMPH,Humidity,HourlyPrecipIn,Conditions,Clouds,dailyrainin,SoftwareType,DateUTC
2013-02-21 00:21:00,20.0,15.0,30.09,North,-999,0.0,0.0,79,0.00,,,-99.99,,2013-02-21 08:21:00,
2013-02-21 00:31:00,20.0,15.0,30.09,North,-999,0.0,0.0,79,0.00,,,-99.99,,2013-02-21 08:31:00,
2013-02-21 01:22:00,18.0,13.0,30.09,North,-999,0.0,0.0,81,0.00,,,-99.99,,2013-02-21 09:22:00,
2013-02-21 01:31:00,18.0,13.0,30.09,North,-999,0.0,0.0,81,0.00,,,-99.99,,2013-02-21 09:31:00,
2013-02-21 02:21:00,19.0,14.0,30.09,North,-999,0.0,0.0,79,0.00,,,-99.99,,2013-02-21 10:21:00,
2013-02-21 03:21:00,18.0,13.0,30.08,North,-999,0.0,0.0,81,0.00,,,-99.99,,2013-02-21 11:21:00,
2013-02-21 03:31:00,18.0,13.0,30.08,North,-999,0.0,0.0,81,0.00,,,-99.99,,2013-02-21 11:31:00,
2013-02-21 04:21:00,20.0,13.0,30.07,North,-999,0.0,0.0,74,0.00,,,-99.99,,2013-02-21 12:21:00,
2013-02-21 04:32:00,20.0,13.0,30.07,North,-999,0.0,0.0,74,0.00,,,-99.99,,2013-02-21 12:32:00,
2013-02-21 05:22:00,21.0,12.0,30.07,North,-999,0.0,0.0,69,0.00,,,-99.99,,2013-02-21 13:22:00,
2013-02-21 05:32:00,21.0,12.0,30.07,North,-999,0.0,0.0,69,0.00,,,-99.99,,2013-02-21 13:32:00,
2013-02-21 06:21:00,22.0,10.0,30.07,SW,230,1.0,4.0,58,0.00,,,-99.99,,2013-02-21 14:21:00,
2013-02-21 06:32:00,22.0,10.0,30.07,SW,230,1.0,4.0,58,0.00,,,-99.99,,2013-02-21 14:32:00,
2013-02-21 07:21:00,23.0,6.0,30.08,WSW,240,2.0,4.0,48,0.00,,,-99.99,,2013-02-21 15:21:00,
2013-02-21 07:31:00,23.0,6.0,30.08,WSW,240,2.0,4.0,48,0.00,,,-99.99,,2013-02-21 15:31:00,
2013-02-21 08:21:00,26.0,2.0,30.08,WSW,240,1.0,4.0,35,0.00,,,-99.99,,2013-02-21 16:21:00,
2013-02-21 08:32:00,26.0,2.0,30.08,WSW,240,1.0,4.0,35,0.00,,,-99.99,,2013-02-21 16:32:00,
2013-02-21 09:21:00,30.0,3.0,30.07,West,260,1.0,5.0,31,0.00,,,-99.99,,2013-02-21 17:21:00,
2013-02-21 09:32:00,30.0,3.0,30.07,West,260,1.0,5.0,31,0.00,,,-99.99,,2013-02-21 17:32:00,
2013-02-21 10:22:00,30.0,6.0,30.10,SW,230,3.0,6.0,36,0.00,,,-99.99,,2013-02-21 18:22:00,
2013-02-21 10:31:00,30.0,6.0,30.10,SW,230,3.0,6.0,36,0.00,,,-99.99,,2013-02-21 18:31:00,
2013-02-21 10:42:00,30.0,6.0,30.10,SW,230,3.0,6.0,36,0.00,,,-99.99,,2013-02-21 18:42:00,
2013-02-21 11:21:00,28.0,16.0,30.10,ENE,70,2.0,5.0,61,0.00,,,-99.99,,2013-02-21 19:21:00,
2013-02-21 11:31:00,28.0,16.0,30.10,ENE,70,2.0,5.0,61,0.00,,,-99.99,,2013-02-21 19:31:00,
2013-02-21 11:41:00,28.0,16.0,30.10,ENE,70,2.0,5.0,61,0.00,,,-99.99,,2013-02-21 19:41:00,
2013-02-21 12:21:00,29.0,16.0,30.07,WSW,240,1.0,2.0,57,0.00,,,-99.99,,2013-02-21 20:21:00,
2013-02-21 12:31:00,29.0,16.0,30.07,WSW,240,1.0,2.0,57,0.00,,,-99.99,,2013-02-21 20:31:00,
2013-02-21 12:41:00,29.0,16.0,30.07,WSW,240,1.0,2.0,57,0.00,,,-99.99,,2013-02-21 20:41:00,
2013-02-21 13:21:00,27.0,14.0,30.05,NNE,30,3.0,9.0,58,0.00,,,-99.99,,2013-02-21 21:21:00,
2013-02-21 13:31:00,27.0,14.0,30.05,NNE,30,3.0,9.0,58,0.00,,,-99.99,,2013-02-21 21:31:00,
2013-02-21 13:42:00,27.0,14.0,30.05,NNE,30,3.0,9.0,58,0.00,,,-99.99,,2013-02-21 21:42:00,
2013-02-21 14:21:00,26.0,14.0,30.05,North,10,4.0,12.0,61,0.00,,,-99.99,,2013-02-21 22:21:00,
2013-02-21 14:31:00,26.0,14.0,30.05,North,10,4.0,12.0,61,0.00,,,-99.99,,2013-02-21 22:31:00,
2013-02-21 14:41:00,26.0,14.0,30.05,North,10,4.0,12.0,61,0.00,,,-99.99,,2013-02-21 22:41:00,
2013-02-21 15:21:00,26.0,14.0,30.06,NNE,30,6.0,11.0,60,0.00,,,-99.99,,2013-02-21 23:21:00,
2013-02-21 15:31:00,26.0,14.0,30.06,NNE,30,6.0,11.0,60,0.00,,,-99.99,,2013-02-21 23:31:00,
2013-02-21 15:41:00,26.0,14.0,30.06,NNE,30,6.0,11.0,60,0.00,,,-99.99,,2013-02-21 23:41:00,
2013-02-21 16:21:00,27.0,13.0,30.05,North,0,0.0,7.0,56,0.00,,,-99.99,,2013-02-22 00:21:00,
2013-02-21 16:31:00,27.0,13.0,30.05,North,0,0.0,7.0,56,0.00,,,-99.99,,2013-02-22 00:31:00,
2013-02-21 16:41:00,27.0,13.0,30.05,North,0,0.0,7.0,56,0.00,,,-99.99,,2013-02-22 00:41:00,
2013-02-21 17:21:00,25.0,14.0,30.08,NNE,20,3.0,7.0,62,0.00,,,-99.99,,2013-02-22 01:21:00,
2013-02-21 17:32:00,25.0,14.0,30.08,NNE,20,3.0,7.0,62,0.00,,,-99.99,,2013-02-22 01:32:00,
2013-02-21 17:42:00,25.0,14.0,30.08,NNE,20,3.0,7.0,62,0.00,,,-99.99,,2013-02-22 01:42:00,
2013-02-21 18:21:00,23.0,11.0,30.10,North,0,0.0,3.0,60,0.00,,,-99.99,,2013-02-22 02:21:00,
2013-02-21 18:31:00,23.0,11.0,30.10,North,0,0.0,3.0,60,0.00,,,-99.99,,2013-02-22 02:31:00,
2013-02-21 18:42:00,23.0,11.0,30.10,North,0,0.0,3.0,60,0.00,,,-99.99,,2013-02-22 02:42:00,
2013-02-21 19:21:00,20.0,9.0,30.13,North,-999,0.0,0.0,61,0.00,,,-99.99,,2013-02-22 03:21:00,
2013-02-21 19:31:00,20.0,9.0,30.13,North,-999,0.0,0.0,61,0.00,,,-99.99,,2013-02-22 03:31:00,
2013-02-21 19:41:00,20.0,9.0,30.13,North,-999,0.0,0.0,61,0.00,,,-99.99,,2013-02-22 03:41:00,
2013-02-21 20:21:00,19.0,7.0,30.16,North,-999,0.0,0.0,59,0.00,,,-99.99,,2013-02-22 04:21:00,
2013-02-21 20:32:00,19.0,7.0,30.16,North,-999,0.0,0.0,59,0.00,,,-99.99,,2013-02-22 04:32:00,
2013-02-21 20:42:00,19.0,7.0,30.16,North,-999,0.0,0.0,59,0.00,,,-99.99,,2013-02-22 04:42:00,
2013-02-21 21:22:00,20.0,5.0,30.19,North,0,0.0,2.0,52,0.00,,,-99.99,,2013-02-22 05:22:00,
2013-02-21 21:32:00,20.0,5.0,30.19,North,0,0.0,2.0,52,0.00,,,-99.99,,2013-02-22 05:32:00,
2013-02-21 21:41:00,20.0,5.0,30.19,North,0,0.0,2.0,52,0.00,,,-99.99,,2013-02-22 05:41:00,
2013-02-21 22:21:00,20.0,5.0,30.19,North,0,0.0,1.0,51,0.00,,,-99.99,,2013-02-22 06:21:00,
2013-02-21 22:31:00,20.0,5.0,30.19,North,0,0.0,1.0,51,0.00,,,-99.99,,2013-02-22 06:31:00,
2013-02-21 22:42:00,20.0,5.0,30.19,North,0,0.0,1.0,51,0.00,,,-99.99,,2013-02-22 06:42:00,
2013-02-21 23:31:00,21.0,4.0,30.20,South,170,2.0,3.0,47,0.00,,,-99.99,,2013-02-22 07:31:00,
2013-02-21 23:42:00,21.0,4.0,30.20,South,170,2.0,3.0,47,0.00,,,-99.99,,2013-02-22 07:42:00,